createdAt,value
2019-04-06T00:01:02.873Z,99240.80
2019-04-06T00:03:32.495Z,99233.23
2019-04-06T00:06:01.970Z,99241.09
2019-04-06T00:08:31.362Z,99242.97
2019-04-06T00:11:01.031Z,99247.37
2019-04-06T00:13:30.556Z,99237.33
2019-04-06T00:15:59.953Z,99230.19
2019-04-06T00:18:29.479Z,99234.59
2019-04-06T00:20:58.974Z,99233.99
2019-04-06T00:23:28.454Z,99230.20
2019-04-06T00:25:57.868Z,99227.57
2019-04-06T00:28:27.256Z,99235.09
2019-04-06T00:31:04.453Z,99240.31
2019-04-06T00:33:33.942Z,99235.84
2019-04-06T00:36:03.353Z,99237.94
2019-04-06T00:38:33.937Z,99236.37
2019-04-06T00:41:03.583Z,99234.38
2019-04-06T00:43:33.080Z,99230.13
2019-04-06T00:46:02.486Z,99232.01
2019-04-06T00:48:31.869Z,99228.03
2019-04-06T00:51:01.387Z,99225.33
2019-04-06T00:53:30.878Z,99227.03
2019-04-06T00:56:00.254Z,99219.48
2019-04-06T00:58:29.736Z,99224.16
2019-04-06T01:00:59.143Z,99220.55
2019-04-06T01:03:28.544Z,99220.22
2019-04-06T01:05:58.076Z,99226.11
2019-04-06T01:08:27.649Z,99224.72
2019-04-06T01:10:57.434Z,99218.77
2019-04-06T01:13:26.870Z,99215.14
2019-04-06T01:15:56.341Z,99218.61
2019-04-06T01:18:25.835Z,99223.86
2019-04-06T01:20:55.268Z,99219.53
2019-04-06T01:23:24.781Z,99216.52
2019-04-06T01:25:54.293Z,99214.42
2019-04-06T01:28:23.783Z,99217.68
2019-04-06T01:30:53.359Z,99219.84
2019-04-06T01:33:22.845Z,99219.78
2019-04-06T01:35:52.337Z,99228.30
2019-04-06T01:38:21.825Z,99223.84
2019-04-06T01:40:51.316Z,99227.12
2019-04-06T01:43:20.790Z,99220.20
2019-04-06T01:45:50.224Z,99222.86
2019-04-06T01:48:19.599Z,99217.75
2019-04-06T01:50:49.089Z,99219.52
2019-04-06T01:53:19.170Z,99212.95
2019-04-06T01:55:48.586Z,99215.13
2019-04-06T01:58:17.985Z,99220.76
2019-04-06T02:01:06.453Z,99220.52
2019-04-06T02:03:35.965Z,99219.28
2019-04-06T02:06:05.483Z,99212.38
2019-04-06T02:08:34.937Z,99209.75
2019-04-06T02:11:04.652Z,99211.67
2019-04-06T02:13:34.186Z,99212.67
2019-04-06T02:16:03.572Z,99214.45
2019-04-06T02:18:33.054Z,99208.14
2019-04-06T02:21:02.461Z,99207.99
2019-04-06T02:23:31.894Z,99210.97
2019-04-06T02:26:02.490Z,99208.67
2019-04-06T02:28:31.983Z,99213.52
2019-04-06T02:31:14.476Z,99212.77
2019-04-06T02:34:05.642Z,99212.98
2019-04-06T02:36:47.878Z,99210.28
2019-04-06T02:39:30.573Z,99206.08
2019-04-06T02:42:16.787Z,99207.33
2019-04-06T02:44:46.217Z,99211.05
2019-04-06T02:47:15.696Z,99202.37
2019-04-06T02:49:45.211Z,99208.33
2019-04-06T02:52:14.815Z,99217.79
2019-04-06T02:54:44.157Z,99218.03
2019-04-06T02:57:13.688Z,99218.95
2019-04-06T02:59:43.073Z,99216.50
2019-04-06T03:02:12.721Z,99219.39
2019-04-06T03:04:42.389Z,99217.62
2019-04-06T03:07:11.769Z,99224.73
2019-04-06T03:09:41.235Z,99225.73
2019-04-06T03:12:11.020Z,99222.34
2019-04-06T03:14:44.038Z,99217.62
2019-04-06T03:17:11.775Z,99218.86
2019-04-06T03:19:41.221Z,99220.95
2019-04-06T03:22:10.712Z,99219.32
2019-04-06T03:24:40.276Z,99218.00
2019-04-06T03:27:09.886Z,99217.54
2019-04-06T03:29:39.252Z,99221.17
2019-04-06T03:32:08.735Z,99224.89
2019-04-06T03:34:38.266Z,99218.52
2019-04-06T03:37:07.665Z,99224.70
2019-04-06T03:39:37.152Z,99233.67
2019-04-06T03:42:06.588Z,99228.09
2019-04-06T03:44:35.963Z,99238.31
2019-04-06T03:47:07.732Z,99233.44
2019-04-06T03:49:37.399Z,99240.28
2019-04-06T03:52:06.782Z,99235.95
2019-04-06T03:54:36.220Z,99229.69
2019-04-06T03:57:14.646Z,99239.20
2019-04-06T03:59:37.112Z,99236.58
2019-04-06T04:02:06.498Z,99235.27
2019-04-06T04:04:35.922Z,99241.84
2019-04-06T04:07:05.575Z,99242.22
2019-04-06T04:09:35.145Z,99247.87
2019-04-06T04:12:04.720Z,99247.63
2019-04-06T04:14:34.154Z,99248.88
2019-04-06T04:17:03.977Z,99255.56
2019-04-06T04:19:33.554Z,99256.19
2019-04-06T04:22:03.027Z,99257.58
2019-04-06T04:24:32.545Z,99254.67
2019-04-06T04:27:02.009Z,99258.08
2019-04-06T04:29:31.531Z,99259.63
2019-04-06T04:32:01.158Z,99258.15
2019-04-06T04:34:30.910Z,99264.95
2019-04-06T04:37:00.303Z,99267.23
2019-04-06T04:39:29.660Z,99263.61
2019-04-06T04:41:59.330Z,99270.77
2019-04-06T04:44:30.057Z,99267.78
2019-04-06T04:47:01.068Z,99271.53
2019-04-06T04:49:30.482Z,99277.56
2019-04-06T04:51:59.951Z,99272.69
2019-04-06T04:54:29.479Z,99278.60
2019-04-06T04:56:58.922Z,99275.73
2019-04-06T04:59:28.388Z,99273.84
2019-04-06T05:01:57.766Z,99277.70
2019-04-06T05:04:27.207Z,99285.59
2019-04-06T05:06:56.695Z,99288.46
2019-04-06T05:09:26.224Z,99295.61
2019-04-06T05:11:55.681Z,99291.97
2019-04-06T05:15:14.460Z,99289.06
2019-04-06T05:17:43.988Z,99293.08
2019-04-06T05:20:13.684Z,99286.44
2019-04-06T05:22:43.072Z,99298.38
2019-04-06T05:25:12.648Z,99299.80
2019-04-06T05:27:51.282Z,99302.02
2019-04-06T05:30:14.347Z,99302.58
2019-04-06T05:32:43.939Z,99296.84
2019-04-06T05:35:13.558Z,99302.20
2019-04-06T05:37:43.023Z,99306.08
2019-04-06T05:40:12.678Z,99303.66
2019-04-06T05:42:42.044Z,99305.06
2019-04-06T05:45:11.703Z,99307.45
2019-04-06T05:47:41.330Z,99306.05
2019-04-06T05:50:10.881Z,99312.72
2019-04-06T05:52:40.249Z,99305.20
2019-04-06T05:55:10.167Z,99303.50
2019-04-06T05:57:39.651Z,99312.09
2019-04-06T06:00:10.587Z,99308.30
2019-04-06T06:02:41.757Z,99312.00
2019-04-06T06:05:12.841Z,99310.29
2019-04-06T06:07:42.321Z,99307.78
2019-04-06T06:10:12.176Z,99309.46
2019-04-06T06:12:42.689Z,99310.26
2019-04-06T06:15:12.272Z,99306.22
2019-04-06T06:17:41.797Z,99310.45
2019-04-06T06:20:11.648Z,99309.81
2019-04-06T06:22:41.318Z,99308.11
2019-04-06T06:25:11.104Z,99307.45
2019-04-06T06:27:40.512Z,99306.87
2019-04-06T06:30:10.216Z,99308.48
2019-04-06T06:32:39.754Z,99306.03
2019-04-06T06:35:09.494Z,99301.92
2019-04-06T06:37:38.887Z,99301.41
2019-04-06T06:40:08.828Z,99304.58
2019-04-06T06:42:38.392Z,99304.77
2019-04-06T06:45:08.660Z,99300.61
2019-04-06T06:47:38.293Z,99308.83
2019-04-06T06:50:07.983Z,99302.37
2019-04-06T06:52:37.499Z,99304.84
2019-04-06T06:55:07.370Z,99306.26
2019-04-06T06:57:36.759Z,99304.20
2019-04-06T07:00:07.996Z,99304.59
2019-04-06T07:02:38.054Z,99296.42
2019-04-06T07:05:08.143Z,99309.39
2019-04-06T07:07:37.683Z,99308.97
2019-04-06T07:10:08.114Z,99300.16
2019-04-06T07:12:38.914Z,99310.61
2019-04-06T07:15:09.284Z,99311.34
2019-04-06T07:17:38.984Z,99319.80
2019-04-06T07:20:09.449Z,99318.08
2019-04-06T07:22:38.882Z,99315.83
2019-04-06T07:25:08.589Z,99315.76
2019-04-06T07:27:38.195Z,99314.71
2019-04-06T07:30:08.066Z,99320.62
2019-04-06T07:32:37.550Z,99320.36
2019-04-06T07:35:07.703Z,99320.55
2019-04-06T07:37:37.200Z,99326.91
2019-04-06T07:40:07.888Z,99323.83
2019-04-06T07:42:37.419Z,99322.36
2019-04-06T07:45:07.868Z,99322.87
2019-04-06T07:47:37.364Z,99328.45
2019-04-06T07:50:07.719Z,99316.80
2019-04-06T07:52:37.392Z,99319.36
2019-04-06T07:55:08.031Z,99321.50
2019-04-06T07:57:37.464Z,99312.81
2019-04-06T08:00:07.200Z,99315.16
2019-04-06T08:02:36.863Z,99313.19
2019-04-06T08:05:06.744Z,99309.08
2019-04-06T08:07:36.606Z,99308.88
2019-04-06T08:10:07.127Z,99307.83
2019-04-06T08:12:36.936Z,99304.61
2019-04-06T08:15:07.929Z,99308.97
2019-04-06T08:17:37.596Z,99307.27
2019-04-06T08:20:12.301Z,99308.67
2019-04-06T08:22:41.773Z,99302.67
2019-04-06T08:25:13.410Z,99310.72
2019-04-06T08:27:43.015Z,99304.70
2019-04-06T08:30:12.833Z,99300.69
2019-04-06T08:32:42.221Z,99297.36
2019-04-06T08:35:11.806Z,99297.75
2019-04-06T08:37:41.396Z,99297.16
2019-04-06T08:40:11.312Z,99290.49
2019-04-06T08:42:41.935Z,99293.37
2019-04-06T08:45:13.817Z,99285.48
2019-04-06T08:47:43.241Z,99278.92
2019-04-06T08:50:14.700Z,99275.92
2019-04-06T08:52:45.621Z,99277.84
2019-04-06T08:55:16.098Z,99283.72
2019-04-06T08:57:49.631Z,99276.36
2019-04-06T09:00:19.186Z,99270.88
2019-04-06T09:02:48.736Z,99265.53
2019-04-06T09:05:18.362Z,99262.33
2019-04-06T09:07:48.107Z,99263.28
2019-04-06T09:10:18.023Z,99268.31
2019-04-06T09:12:47.637Z,99272.33
2019-04-06T09:15:18.631Z,99261.54
2019-04-06T09:17:48.842Z,99265.19
2019-04-06T09:20:18.394Z,99264.94
2019-04-06T09:22:51.004Z,99258.41
2019-04-06T09:25:20.509Z,99248.64
2019-04-06T09:27:50.120Z,99249.91
2019-04-06T09:30:19.563Z,99254.62
2019-04-06T09:32:49.086Z,99254.08
2019-04-06T09:35:18.680Z,99251.43
2019-04-06T09:37:48.095Z,99250.78
2019-04-06T09:40:18.063Z,99248.14
2019-04-06T09:42:47.510Z,99252.85
2019-04-06T09:45:41.308Z,99250.20
2019-04-06T09:48:32.589Z,99250.78
2019-04-06T09:51:15.048Z,99252.27
2019-04-06T09:54:07.623Z,99247.87
2019-04-06T09:56:53.754Z,99236.69
2019-04-06T09:59:48.032Z,99235.48
2019-04-06T10:02:34.885Z,99230.78
2019-04-06T10:05:22.518Z,99231.02
2019-04-06T10:08:18.437Z,99219.82
2019-04-06T10:11:10.062Z,99222.99
2019-04-06T10:14:05.999Z,99217.31
2019-04-06T10:16:53.201Z,99219.23
2019-04-06T10:19:47.647Z,99220.47
2019-04-06T10:22:23.653Z,99212.23
2019-04-06T10:25:11.637Z,99207.45
2019-04-06T10:28:03.744Z,99214.38
2019-04-06T10:30:53.562Z,99197.11
2019-04-06T10:33:47.305Z,99200.09
2019-04-06T10:36:38.362Z,99203.11
2019-04-06T10:39:29.680Z,99189.52
2019-04-06T10:42:24.002Z,99188.89
2019-04-06T10:45:02.966Z,99192.28
2019-04-06T10:47:54.077Z,99188.55
2019-04-06T10:50:54.891Z,99182.86
2019-04-06T10:53:42.500Z,99169.38
2019-04-06T10:56:29.804Z,99168.02
2019-04-06T10:59:24.158Z,99159.12
2019-04-06T11:02:15.234Z,99159.12
2019-04-06T11:04:52.734Z,99156.38
2019-04-06T11:07:36.109Z,99151.38
2019-04-06T11:10:32.739Z,99150.96
2019-04-06T11:13:10.850Z,99148.73
2019-04-06T11:15:50.987Z,99141.48
2019-04-06T11:18:34.521Z,99137.86
2019-04-06T11:21:22.860Z,99123.15
2019-04-06T11:24:11.688Z,99122.45
2019-04-06T11:27:06.423Z,99119.59
2019-04-06T11:29:48.152Z,99121.12
2019-04-06T11:32:32.448Z,99115.59
2019-04-06T11:35:29.632Z,99112.19
2019-04-06T11:38:33.238Z,99106.81
2019-04-06T11:41:20.092Z,99099.59
2019-04-06T11:44:01.483Z,99096.81
2019-04-06T11:47:05.628Z,99094.44
2019-04-06T11:50:09.072Z,99083.47
2019-04-06T11:52:49.746Z,99086.42
2019-04-06T11:55:47.049Z,99077.62
2019-04-06T11:58:30.978Z,99077.75
2019-04-06T12:01:06.404Z,99069.78
2019-04-06T12:03:53.474Z,99064.08
2019-04-06T12:06:40.978Z,99055.85
2019-04-06T12:09:25.169Z,99053.55
2019-04-06T12:12:25.588Z,99048.48
2019-04-06T12:15:20.418Z,99047.53
2019-04-06T12:18:07.625Z,99044.96
2019-04-06T12:20:55.081Z,99036.90
2019-04-06T12:23:43.709Z,99031.30
2019-04-06T12:26:41.613Z,99020.70
2019-04-06T12:29:32.929Z,99016.35
2019-04-06T12:32:20.152Z,99017.37
2019-04-06T12:34:56.695Z,99016.58
2019-04-06T12:37:57.456Z,99016.88
2019-04-06T12:40:52.792Z,99007.34
2019-04-06T12:43:46.948Z,98998.25
2019-04-06T12:46:34.153Z,98989.38
2019-04-06T12:49:11.185Z,98979.89
2019-04-06T12:52:11.299Z,98977.46
2019-04-06T12:55:00.143Z,98973.50
2019-04-06T12:58:03.409Z,98971.37
2019-04-06T13:00:53.099Z,98970.09
2019-04-06T13:03:34.539Z,98965.41
2019-04-06T13:06:12.490Z,98959.14
2019-04-06T13:09:09.881Z,98956.58
2019-04-06T13:11:56.560Z,98953.20
2019-04-06T13:14:56.980Z,98941.16
2019-04-06T13:17:48.291Z,98941.16
2019-04-06T13:20:35.144Z,98933.98
2019-04-06T13:23:22.811Z,98933.98
2019-04-06T13:26:20.429Z,98916.88
2019-04-06T13:29:14.762Z,98926.58
2019-04-06T13:32:03.086Z,98908.17
2019-04-06T13:34:47.676Z,98920.45
2019-04-06T13:37:25.403Z,98913.48
2019-04-06T13:40:28.704Z,98905.06
2019-04-06T13:43:15.678Z,98900.69
2019-04-06T13:45:57.807Z,98904.60
2019-04-06T13:48:44.917Z,98903.09
2019-04-06T13:51:39.063Z,98901.13
2019-04-06T13:54:27.379Z,98892.45
2019-04-06T13:57:06.465Z,98890.27
2019-04-06T13:59:46.580Z,98897.31
2019-04-06T14:02:40.240Z,98898.22
2019-04-06T14:05:27.114Z,98892.91
2019-04-06T14:08:16.699Z,98895.06
2019-04-06T14:11:07.816Z,98904.22
2019-04-06T14:14:08.546Z,98899.75
2019-04-06T14:16:56.653Z,98899.16
2019-04-06T14:19:48.340Z,98903.20
2019-04-06T14:22:48.201Z,98899.19
2019-04-06T14:25:39.252Z,98892.22
2019-04-06T14:28:26.033Z,98884.53
2019-04-06T14:31:09.259Z,98896.21
2019-04-06T14:33:56.561Z,98889.52
2019-04-06T14:36:35.278Z,98890.48
2019-04-06T14:39:30.855Z,98883.73
2019-04-06T14:42:13.359Z,98888.63
2019-04-06T14:45:00.478Z,98899.41
2019-04-06T14:47:49.353Z,98891.90
2019-04-06T14:50:27.334Z,98899.84
2019-04-06T14:53:20.210Z,98898.70
2019-04-06T14:56:14.721Z,98896.55
2019-04-06T14:59:06.946Z,98893.95
2019-04-06T15:01:58.663Z,98900.57
2019-04-06T15:04:42.628Z,98902.42
2019-04-06T15:07:30.191Z,98900.52
2019-04-06T15:10:24.671Z,98906.27
2019-04-06T15:13:31.024Z,98904.80
2019-04-06T15:16:22.565Z,98907.54
2019-04-06T15:19:09.511Z,98908.05
2019-04-06T15:22:00.720Z,98912.95
2019-04-06T15:24:36.562Z,98901.81
2019-04-06T15:27:27.162Z,98904.14
2019-04-06T15:30:19.085Z,98910.36
2019-04-06T15:33:14.775Z,98911.20
2019-04-06T15:36:38.933Z,98921.94
2019-04-06T15:39:29.096Z,98923.28
2019-04-06T15:42:25.488Z,98923.28
2019-04-06T15:45:30.168Z,98911.83
2019-04-06T15:48:11.004Z,98911.31
2019-04-06T15:51:14.309Z,98915.19
2019-04-06T15:54:09.649Z,98917.14
2019-04-06T15:56:45.757Z,98917.96
2019-04-06T15:59:34.431Z,98918.24
2019-04-06T16:02:21.871Z,98921.20
2019-04-06T16:05:23.703Z,98913.75
2019-04-06T16:08:21.928Z,98912.88
2019-04-06T16:11:13.375Z,98918.46
2019-04-06T16:14:01.828Z,98916.04
2019-04-06T16:16:45.775Z,98920.01
2019-04-06T16:19:33.062Z,98921.76
2019-04-06T16:22:19.721Z,98921.55
2019-04-06T16:24:54.599Z,98930.64
2019-04-06T16:27:52.956Z,98927.86
2019-04-06T16:30:41.380Z,98927.99
2019-04-06T16:33:28.630Z,98926.99
2019-04-06T16:36:09.776Z,98926.72
2019-04-06T16:38:56.213Z,98923.30
2019-04-06T16:41:39.113Z,98931.80
2019-04-06T16:44:30.280Z,98928.30
2019-04-06T16:47:21.750Z,98925.84
2019-04-06T16:50:19.353Z,98932.22
2019-04-06T16:53:03.842Z,98934.17
2019-04-06T16:55:42.785Z,98933.97
2019-04-06T16:58:30.493Z,98940.08
2019-04-06T17:01:18.372Z,98935.11
2019-04-06T17:04:01.245Z,98927.03
2019-04-06T17:06:55.650Z,98932.49
2019-04-06T17:09:43.246Z,98932.42
2019-04-06T17:12:23.429Z,98938.52
2019-04-06T17:15:20.847Z,98937.95
2019-04-06T17:18:21.024Z,98944.34
2019-04-06T17:20:59.243Z,98950.99
2019-04-06T17:23:40.786Z,98947.71
2019-04-06T17:26:25.026Z,98950.98
2019-04-06T17:29:11.743Z,98944.70
2019-04-06T17:32:06.433Z,98955.03
2019-04-06T17:34:55.915Z,98947.05
2019-04-06T17:37:45.994Z,98960.84
2019-04-06T17:40:37.932Z,98961.47
2019-04-06T17:43:26.500Z,98961.59
2019-04-06T17:46:27.166Z,98966.80
2019-04-06T17:49:30.618Z,98965.98
2019-04-06T17:52:19.438Z,98975.17
2019-04-06T17:55:03.829Z,98972.90
2019-04-06T17:58:10.683Z,98982.18
2019-04-06T18:01:11.232Z,98985.95
2019-04-06T18:03:52.305Z,98984.84
2019-04-06T18:06:30.624Z,98983.18
2019-04-06T18:09:12.115Z,98973.73
2019-04-06T18:11:50.181Z,98986.22
2019-04-06T18:14:19.959Z,98989.00
2019-04-06T18:16:49.480Z,98982.25
2019-04-06T18:19:19.310Z,98990.09
2019-04-06T18:21:49.168Z,98989.14
2019-04-06T18:24:19.465Z,99002.42
2019-04-06T18:26:49.110Z,99011.88
2019-04-06T18:29:18.528Z,99013.91
2019-04-06T18:32:03.647Z,99012.57
2019-04-06T18:34:33.207Z,99020.94
2019-04-06T18:37:26.695Z,99024.66
2019-04-06T18:39:57.926Z,99028.17
2019-04-06T18:42:27.382Z,99031.80
2019-04-06T18:44:56.981Z,99035.16
2019-04-06T18:47:26.690Z,99030.32
2019-04-06T18:49:56.226Z,99036.73
2019-04-06T18:52:27.244Z,99035.98
2019-04-06T18:54:56.635Z,99037.06
2019-04-06T18:57:26.485Z,99033.17
2019-04-06T18:59:56.182Z,99037.77
2019-04-06T19:02:25.875Z,99040.55
2019-04-06T19:04:55.429Z,99045.19
2019-04-06T19:07:24.971Z,99050.26
2019-04-06T19:09:54.661Z,99050.63
2019-04-06T19:12:24.012Z,99050.78
2019-04-06T19:14:53.647Z,99053.28
2019-04-06T19:17:23.758Z,99059.42
2019-04-06T19:19:53.842Z,99055.94
2019-04-06T19:22:23.977Z,99066.44
2019-04-06T19:24:53.562Z,99068.48
2019-04-06T19:27:22.984Z,99072.65
2019-04-06T19:29:52.995Z,99066.84
2019-04-06T19:32:22.732Z,99065.58
2019-04-06T19:34:52.811Z,99066.83
2019-04-06T19:37:22.663Z,99076.09
2019-04-06T19:39:52.390Z,99076.17
2019-04-06T19:42:23.290Z,99081.63
2019-04-06T19:44:52.793Z,99080.55
2019-04-06T19:47:22.273Z,99088.44
2019-04-06T19:49:51.678Z,99080.16
2019-04-06T19:52:21.389Z,99088.77
2019-04-06T19:54:50.896Z,99085.27
2019-04-06T19:57:20.625Z,99084.47
2019-04-06T19:59:50.439Z,99092.30
2019-04-06T20:02:19.790Z,99089.28
2019-04-06T20:04:49.170Z,99092.33
2019-04-06T20:07:18.689Z,99104.43
2019-04-06T20:09:48.181Z,99097.47
2019-04-06T20:12:17.594Z,99103.01
2019-04-06T20:14:47.152Z,99103.24
2019-04-06T20:17:16.639Z,99111.31
2019-04-06T20:19:46.327Z,99110.55
2019-04-06T20:22:15.825Z,99119.00
2019-04-06T20:24:45.621Z,99124.41
2019-04-06T20:27:15.233Z,99118.37
2019-04-06T20:29:45.291Z,99117.66
2019-04-06T20:32:14.740Z,99115.86
2019-04-06T20:34:44.191Z,99113.90
2019-04-06T20:37:13.927Z,99116.44
2019-04-06T20:39:43.604Z,99119.89
2019-04-06T20:42:13.575Z,99122.44
2019-04-06T20:44:43.570Z,99123.01
2019-04-06T20:47:13.079Z,99133.17
2019-04-06T20:49:42.631Z,99125.75
2019-04-06T20:52:12.500Z,99124.41
2019-04-06T20:54:41.993Z,99128.97
2019-04-06T20:57:11.969Z,99127.83
2019-04-06T20:59:41.515Z,99126.57
2019-04-06T21:02:11.140Z,99126.98
2019-04-06T21:04:41.007Z,99129.31
2019-04-06T21:07:11.138Z,99129.52
2019-04-06T21:09:40.573Z,99127.72
2019-04-06T21:12:10.566Z,99132.61
2019-04-06T21:14:40.533Z,99130.27
2019-04-06T21:17:10.567Z,99134.42
2019-04-06T21:19:40.549Z,99133.08
2019-04-06T21:22:10.679Z,99133.28
2019-04-06T21:24:40.330Z,99131.56
2019-04-06T21:27:09.816Z,99135.91
2019-04-06T21:29:39.723Z,99138.27
2019-04-06T21:32:09.212Z,99131.28
2019-04-06T21:34:38.606Z,99140.42
2019-04-06T21:37:08.541Z,99132.66
2019-04-06T21:39:38.101Z,99139.14
2019-04-06T21:42:07.620Z,99132.83
2019-04-06T21:44:37.590Z,99134.62
2019-04-06T21:47:08.098Z,99128.52
2019-04-06T21:49:37.728Z,99129.74
2019-04-06T21:52:07.623Z,99134.83
2019-04-06T21:54:37.151Z,99137.47
2019-04-06T21:57:07.235Z,99134.87
2019-04-06T21:59:37.332Z,99134.68
2019-04-06T22:02:07.140Z,99128.29
2019-04-06T22:04:36.620Z,99129.45
2019-04-06T22:07:07.689Z,99137.01
2019-04-06T22:09:37.067Z,99133.84
2019-04-06T22:12:07.250Z,99123.92
2019-04-06T22:14:36.793Z,99131.09
2019-04-06T22:17:07.412Z,99136.59
2019-04-06T22:19:36.996Z,99135.19
2019-04-06T22:22:06.601Z,99129.01
2019-04-06T22:24:36.081Z,99129.20
2019-04-06T22:27:05.462Z,99132.29
2019-04-06T22:29:35.262Z,99135.27
2019-04-06T22:32:04.958Z,99138.38
2019-04-06T22:34:39.730Z,99132.91
2019-04-06T22:37:06.226Z,99134.81
2019-04-06T22:39:35.637Z,99132.14
2019-04-06T22:42:05.215Z,99128.38
2019-04-06T22:44:34.805Z,99127.34
2019-04-06T22:47:04.711Z,99125.56
2019-04-06T22:49:34.241Z,99115.81
2019-04-06T22:52:04.294Z,99119.39
2019-04-06T22:54:34.473Z,99116.84
2019-04-06T22:57:04.355Z,99116.75
2019-04-06T22:59:33.888Z,99120.77
2019-04-06T23:02:04.434Z,99121.38
2019-04-06T23:04:47.721Z,99124.30
2019-04-06T23:07:13.353Z,99121.56
2019-04-06T23:09:42.868Z,99113.33
2019-04-06T23:12:12.820Z,99107.20
2019-04-06T23:14:43.096Z,99110.34
2019-04-06T23:17:12.530Z,99105.62
2019-04-06T23:19:42.055Z,99106.68
2019-04-06T23:22:11.527Z,99102.20
2019-04-06T23:24:41.993Z,99104.66
2019-04-06T23:27:11.605Z,99099.16
2019-04-06T23:29:41.795Z,99097.80
2019-04-06T23:32:11.268Z,99098.84
2019-04-06T23:34:40.865Z,99093.09
2019-04-06T23:37:10.330Z,99091.95
2019-04-06T23:39:40.063Z,99086.39
2019-04-06T23:42:10.203Z,99090.52
2019-04-06T23:44:39.901Z,99084.67
2019-04-06T23:47:09.376Z,99083.98
2019-04-06T23:49:38.905Z,99082.49
2019-04-06T23:52:09.232Z,99079.56
2019-04-06T23:54:38.676Z,99086.95
2019-04-06T23:57:08.187Z,99081.67
2019-04-06T23:59:37.569Z,99076.20
